Time;durP1;ratioP1;P1;durP2;ratioP2;P2;SDS_P1;SDS_P2;PMS_P1;PMS_P2;Temp;Humidity;BMP_temperature;BMP_pressure;BME280_temperature;BME280_humidity;BME280_pressure;Samples;Min_cycle;Max_cycle;Signal;HPM_P1;HPM_P2
2021/06/20 00:00:23;;;;;;;;;;;16.50;99.90;;;;;;4957661;28;19981;-78
2021/06/20 00:02:51;;;;;;;;;;;16.50;99.90;;;;;;4966674;28;20396;-78
2021/06/20 00:05:25;;;;;;;;;;;16.50;99.90;;;;;;4958062;28;19966;-79
2021/06/20 00:07:51;;;;;;;;;;;16.50;99.90;;;;;;4959302;28;19929;-78
2021/06/20 00:10:19;;;;;;;;;;;16.50;99.90;;;;;;4957221;28;21682;-78
2021/06/20 00:12:46;;;;;;;;;;;16.50;99.90;;;;;;4955643;28;20401;-79
2021/06/20 00:15:14;;;;;;;;;;;16.50;99.90;;;;;;4956949;28;19930;-78
2021/06/20 00:17:42;;;;;;;;;;;16.50;99.90;;;;;;4955911;28;19926;-79
2021/06/20 00:20:09;;;;;;;;;;;16.60;99.90;;;;;;4956860;28;19940;-78
2021/06/20 00:22:36;;;;;;;;;;;16.60;99.90;;;;;;4962844;28;20025;-79
2021/06/20 00:25:04;;;;;;;;;;;16.60;99.90;;;;;;4957630;28;19926;-79
2021/06/20 00:27:31;;;;;;;;;;;16.60;99.90;;;;;;4957062;28;19932;-79
2021/06/20 00:29:57;;;;;;;;;;;16.70;99.90;;;;;;4954389;28;19948;-79
2021/06/20 00:32:24;;;;;;;;;;;16.70;99.90;;;;;;4955443;28;19926;-79
2021/06/20 00:34:51;;;;;;;;;;;16.70;99.90;;;;;;4956065;28;19926;-79
2021/06/20 00:37:18;;;;;;;;;;;16.70;99.90;;;;;;4955622;28;19986;-79
2021/06/20 00:39:45;;;;;;;;;;;16.70;99.90;;;;;;4956081;28;20290;-80
2021/06/20 00:42:11;;;;;;;;;;;16.80;99.90;;;;;;4955742;28;20029;-80
2021/06/20 00:44:45;;;;;;;;;;;16.80;99.90;;;;;;4957754;28;19926;-79
2021/06/20 00:47:12;;;;;;;;;;;16.80;99.90;;;;;;4956471;28;20009;-79
2021/06/20 00:49:39;;;;;;;;;;;16.80;99.90;;;;;;4957180;28;20005;-78
2021/06/20 00:52:06;;;;;;;;;;;16.80;99.90;;;;;;4954345;28;20297;-78
2021/06/20 00:54:36;;;;;;;;;;;16.80;99.90;;;;;;4957107;28;19957;-79
2021/06/20 00:57:03;;;;;;;;;;;16.90;99.90;;;;;;4956207;28;19926;-79
2021/06/20 00:59:30;;;;;;;;;;;16.90;99.90;;;;;;4958232;28;19926;-79
2021/06/20 01:01:57;;;;;;;;;;;16.90;99.90;;;;;;4956051;28;19926;-79
2021/06/20 01:04:23;;;;;;;;;;;16.90;99.90;;;;;;4956089;28;19940;-79
2021/06/20 01:06:50;;;;;;;;;;;16.90;99.90;;;;;;4956912;28;20404;-79
2021/06/20 01:09:16;;;;;;;;;;;16.90;99.90;;;;;;4957156;28;19932;-80
2021/06/20 01:11:43;;;;;;;;;;;16.90;99.90;;;;;;4957016;28;19926;-79
2021/06/20 01:14:10;;;;;;;;;;;16.90;99.90;;;;;;4958173;28;20392;-79
2021/06/20 01:16:36;;;;;;;;;;;16.90;99.90;;;;;;4954472;28;20436;-78
2021/06/20 01:19:03;;;;;;;;;;;17.00;99.90;;;;;;4955774;28;19934;-79
2021/06/20 01:21:30;;;;;;;;;;;17.00;99.90;;;;;;4955724;28;19926;-79
2021/06/20 01:23:56;;;;;;;;;;;17.00;99.90;;;;;;4956917;28;19926;-79
2021/06/20 01:26:23;;;;;;;;;;;17.00;99.90;;;;;;4953858;28;19922;-80
2021/06/20 01:29:01;;;;;;;;;;;17.00;99.90;;;;;;4955650;28;19976;-80
2021/06/20 01:31:31;;;;;;;;;;;17.00;99.90;;;;;;4955944;28;22275;-80
2021/06/20 01:33:58;;;;;;;;;;;17.00;99.90;;;;;;4954509;28;20487;-80
2021/06/20 01:36:24;;;;;;;;;;;17.10;99.90;;;;;;4958515;28;19941;-79
2021/06/20 01:38:51;;;;;;;;;;;17.10;99.90;;;;;;4955603;28;19926;-79
2021/06/20 01:41:18;;;;;;;;;;;17.10;99.90;;;;;;4955185;28;19930;-80
2021/06/20 01:43:44;;;;;;;;;;;17.10;99.90;;;;;;4957092;28;19926;-80
2021/06/20 01:46:11;;;;;;;;;;;17.20;99.90;;;;;;4955791;28;19926;-79
2021/06/20 01:48:41;;;;;;;;;;;17.20;99.90;;;;;;4954270;28;19930;-80
2021/06/20 01:51:08;;;;;;;;;;;17.20;99.90;;;;;;4963461;28;19931;-79
2021/06/20 01:53:34;;;;;;;;;;;17.20;99.90;;;;;;4958431;28;19997;-79
2021/06/20 01:56:01;;;;;;;;;;;17.20;99.90;;;;;;4957436;28;19941;-79
2021/06/20 01:58:28;;;;;;;;;;;17.20;99.90;;;;;;4957532;28;19940;-79
2021/06/20 02:00:57;;;;;;;;;;;17.20;99.90;;;;;;4957643;28;19926;-79
2021/06/20 02:03:27;;;;;;;;;;;17.30;99.90;;;;;;4961043;28;19926;-79
2021/06/20 02:05:58;;;;;;;;;;;17.20;99.90;;;;;;4957248;28;20400;-79
2021/06/20 02:08:25;;;;;;;;;;;17.30;99.90;;;;;;4960279;28;19933;-79
2021/06/20 02:10:53;;;;;;;;;;;17.30;99.90;;;;;;4956992;28;19926;-78
2021/06/20 02:13:23;;;;;;;;;;;17.30;99.90;;;;;;4956941;28;19933;-78
2021/06/20 02:15:50;;;;;;;;;;;17.30;99.90;;;;;;4956310;28;19926;-79
2021/06/20 02:18:17;;;;;;;;;;;17.30;99.90;;;;;;4958974;28;21262;-79
2021/06/20 02:20:44;;;;;;;;;;;17.40;99.90;;;;;;4957302;28;19926;-78
2021/06/20 02:23:10;;;;;;;;;;;17.30;99.90;;;;;;4960016;28;19936;-79
2021/06/20 02:25:37;;;;;;;;;;;17.30;99.90;;;;;;4959478;28;19951;-79
2021/06/20 02:28:04;;;;;;;;;;;17.30;99.90;;;;;;4961057;28;19938;-79
2021/06/20 02:30:31;;;;;;;;;;;17.30;99.90;;;;;;4962946;28;19932;-79
2021/06/20 02:32:58;;;;;;;;;;;17.40;99.90;;;;;;4958717;28;19933;-78
2021/06/20 02:35:25;;;;;;;;;;;17.40;99.90;;;;;;4959523;28;19926;-78
2021/06/20 02:37:52;;;;;;;;;;;17.40;99.90;;;;;;4961065;28;20368;-79
2021/06/20 02:40:19;;;;;;;;;;;17.40;99.90;;;;;;4963840;28;20014;-78
2021/06/20 02:42:46;;;;;;;;;;;17.50;99.90;;;;;;4963615;28;19926;-78
2021/06/20 02:45:14;;;;;;;;;;;17.40;99.90;;;;;;4959120;28;19933;-79
2021/06/20 02:47:41;;;;;;;;;;;17.50;99.90;;;;;;4960180;28;19926;-79
2021/06/20 02:50:08;;;;;;;;;;;17.50;99.90;;;;;;4958462;28;19937;-79
2021/06/20 02:52:35;;;;;;;;;;;17.60;99.90;;;;;;4962735;28;20898;-79
2021/06/20 02:55:02;;;;;;;;;;;17.50;99.90;;;;;;4960772;28;20011;-79
2021/06/20 02:57:29;;;;;;;;;;;17.50;99.90;;;;;;4959980;28;20399;-79
2021/06/20 02:59:57;;;;;;;;;;;17.50;99.90;;;;;;4961153;28;19934;-79
2021/06/20 03:02:24;;;;;;;;;;;17.50;99.90;;;;;;4961926;28;19936;-79
2021/06/20 03:04:51;;;;;;;;;;;17.50;99.90;;;;;;4958949;28;20289;-79
2021/06/20 03:07:18;;;;;;;;;;;17.50;99.90;;;;;;4959779;28;20285;-79
2021/06/20 03:09:44;;;;;;;;;;;17.60;99.90;;;;;;4961493;28;20006;-79
2021/06/20 03:12:11;;;;;;;;;;;17.60;99.90;;;;;;4959011;28;19933;-79
2021/06/20 03:14:39;;;;;;;;;;;17.60;99.90;;;;;;4962811;28;19941;-79
2021/06/20 03:17:06;;;;;;;;;;;17.60;99.90;;;;;;4959535;28;19930;-79
2021/06/20 03:19:33;;;;;;;;;;;17.60;99.90;;;;;;4959507;28;20293;-79
2021/06/20 03:22:01;;;;;;;;;;;17.60;99.90;;;;;;4961838;28;19926;-79
2021/06/20 03:24:28;;;;;;;;;;;17.70;99.90;;;;;;4958156;28;19926;-79
2021/06/20 03:26:55;;;;;;;;;;;17.70;99.90;;;;;;4962005;28;19941;-79
2021/06/20 03:29:22;;;;;;;;;;;17.70;99.90;;;;;;4960033;28;19926;-78
2021/06/20 03:31:49;;;;;;;;;;;17.70;99.90;;;;;;4959119;28;19933;-79
2021/06/20 03:34:16;;;;;;;;;;;17.70;99.90;;;;;;4959874;28;20021;-79
2021/06/20 03:36:42;;;;;;;;;;;17.70;99.90;;;;;;4958444;28;19932;-79
2021/06/20 03:39:09;;;;;;;;;;;17.70;99.90;;;;;;4957450;28;19930;-79
2021/06/20 03:41:38;;;;;;;;;;;17.70;99.90;;;;;;4958995;28;19950;-79
2021/06/20 03:44:06;;;;;;;;;;;17.70;99.90;;;;;;4962318;28;19951;-78
2021/06/20 03:46:36;;;;;;;;;;;17.70;99.90;;;;;;4966016;28;20460;-82
2021/06/20 03:49:04;;;;;;;;;;;17.70;99.90;;;;;;4958039;28;19926;-79
2021/06/20 03:51:31;;;;;;;;;;;17.70;99.90;;;;;;4962469;28;19932;-79
2021/06/20 03:53:58;;;;;;;;;;;17.70;99.90;;;;;;4959545;28;19926;-79
2021/06/20 03:56:25;;;;;;;;;;;17.70;99.90;;;;;;4958660;28;20289;-78
2021/06/20 03:58:51;;;;;;;;;;;17.70;99.90;;;;;;4960415;28;20024;-79
2021/06/20 04:01:18;;;;;;;;;;;17.70;99.90;;;;;;4958542;28;20378;-78
2021/06/20 04:03:45;;;;;;;;;;;17.70;99.90;;;;;;4957337;28;19980;-78
2021/06/20 04:06:12;;;;;;;;;;;17.80;99.90;;;;;;4959455;28;19925;-79
2021/06/20 04:08:38;;;;;;;;;;;17.80;99.90;;;;;;4960347;28;19926;-79
2021/06/20 04:11:06;;;;;;;;;;;17.70;99.90;;;;;;4961091;28;19985;-78
2021/06/20 04:13:32;;;;;;;;;;;17.80;99.90;;;;;;4960006;28;19929;-78
2021/06/20 04:15:59;;;;;;;;;;;17.70;99.90;;;;;;4959462;28;19934;-79
2021/06/20 04:18:26;;;;;;;;;;;17.70;99.90;;;;;;4965965;28;20995;-79
2021/06/20 04:20:52;;;;;;;;;;;17.80;99.90;;;;;;4958367;28;19926;-78
2021/06/20 04:23:19;;;;;;;;;;;17.80;99.90;;;;;;4960462;28;21441;-79
2021/06/20 04:25:46;;;;;;;;;;;17.70;99.90;;;;;;4960533;28;19926;-78
2021/06/20 04:28:13;;;;;;;;;;;17.80;99.90;;;;;;4959895;28;19929;-78
2021/06/20 04:30:40;;;;;;;;;;;17.80;99.90;;;;;;4959512;28;19926;-79
2021/06/20 04:33:06;;;;;;;;;;;17.80;99.90;;;;;;4960438;28;20021;-79
2021/06/20 04:35:33;;;;;;;;;;;17.90;99.90;;;;;;4959181;28;20428;-79
2021/06/20 04:38:00;;;;;;;;;;;17.90;99.90;;;;;;4956842;28;19933;-79
2021/06/20 04:40:26;;;;;;;;;;;17.90;99.90;;;;;;4964246;28;19955;-78
2021/06/20 04:43:06;;;;;;;;;;;17.90;99.90;;;;;;4958583;28;19930;-78
2021/06/20 04:45:33;;;;;;;;;;;17.90;99.90;;;;;;4959220;28;19926;-79
2021/06/20 04:48:00;;;;;;;;;;;17.90;99.90;;;;;;4957600;28;19930;-78
2021/06/20 04:50:27;;;;;;;;;;;17.90;99.90;;;;;;4956901;28;20317;-79
2021/06/20 04:52:53;;;;;;;;;;;17.90;99.90;;;;;;4960122;28;19925;-79
2021/06/20 04:55:20;;;;;;;;;;;17.90;99.90;;;;;;4958182;28;20325;-79
2021/06/20 04:57:48;;;;;;;;;;;17.90;99.90;;;;;;4960772;28;19998;-79
2021/06/20 05:00:14;;;;;;;;;;;17.90;99.90;;;;;;4960094;28;25773;-79
2021/06/20 05:02:41;;;;;;;;;;;17.90;99.90;;;;;;4957658;28;19926;-79
2021/06/20 05:05:08;;;;;;;;;;;17.90;99.90;;;;;;4960087;28;20020;-79
2021/06/20 05:07:35;;;;;;;;;;;17.90;99.90;;;;;;4957993;28;19926;-79
2021/06/20 05:10:05;;;;;;;;;;;17.90;99.90;;;;;;4959457;28;19933;-79
2021/06/20 05:12:32;;;;;;;;;;;18.00;99.90;;;;;;4959975;28;19949;-79
2021/06/20 05:14:59;;;;;;;;;;;18.00;99.90;;;;;;4957921;28;20300;-80
2021/06/20 05:17:26;;;;;;;;;;;18.00;99.90;;;;;;4957478;28;20485;-79
2021/06/20 05:19:53;;;;;;;;;;;18.10;99.90;;;;;;4958631;28;19926;-79
2021/06/20 05:22:20;;;;;;;;;;;18.10;99.90;;;;;;4959528;28;21581;-79
2021/06/20 05:24:47;;;;;;;;;;;18.10;99.90;;;;;;4957580;28;20021;-78
2021/06/20 05:27:13;;;;;;;;;;;18.20;99.90;;;;;;4957745;28;19931;-79
2021/06/20 05:29:40;;;;;;;;;;;18.20;99.90;;;;;;4956456;28;19933;-79
2021/06/20 05:32:07;;;;;;;;;;;18.30;99.90;;;;;;4957647;28;20286;-79
2021/06/20 05:34:33;;;;;;;;;;;18.30;99.90;;;;;;4955404;28;19932;-79
2021/06/20 05:37:00;;;;;;;;;;;18.40;99.90;;;;;;4958074;28;19926;-79
2021/06/20 05:39:27;;;;;;;;;;;18.50;99.90;;;;;;4959110;28;20370;-79
2021/06/20 05:41:53;;;;;;;;;;;18.70;99.90;;;;;;4955912;28;19926;-79
2021/06/20 05:44:20;;;;;;;;;;;18.80;99.90;;;;;;4963922;28;19930;-79
2021/06/20 05:46:47;;;;;;;;;;;18.90;99.90;;;;;;4956063;28;19926;-79
2021/06/20 05:49:13;;;;;;;;;;;19.10;99.90;;;;;;4963623;28;19937;-79
2021/06/20 05:51:40;;;;;;;;;;;19.10;99.90;;;;;;4955896;28;20012;-79
2021/06/20 05:54:07;;;;;;;;;;;19.20;99.90;;;;;;4957591;28;19926;-79
2021/06/20 05:56:33;;;;;;;;;;;19.30;99.90;;;;;;4958091;28;19926;-79
2021/06/20 05:59:00;;;;;;;;;;;19.40;99.90;;;;;;4963343;28;19929;-79
2021/06/20 06:01:27;;;;;;;;;;;19.50;99.90;;;;;;4960560;28;19930;-78
2021/06/20 06:03:53;;;;;;;;;;;19.60;99.90;;;;;;4961576;28;19930;-80
2021/06/20 06:06:20;;;;;;;;;;;19.80;99.90;;;;;;4961813;28;19926;-79
2021/06/20 06:08:47;;;;;;;;;;;19.90;99.90;;;;;;4961174;28;20301;-78
2021/06/20 06:11:13;;;;;;;;;;;20.00;99.90;;;;;;4961115;28;19937;-79
2021/06/20 06:13:40;;;;;;;;;;;19.90;99.90;;;;;;4960791;28;20378;-79
2021/06/20 06:16:06;;;;;;;;;;;19.80;99.90;;;;;;4968538;28;19926;-79
2021/06/20 06:18:33;;;;;;;;;;;19.70;99.90;;;;;;4961277;28;20092;-79
2021/06/20 06:21:04;;;;;;;;;;;19.60;99.90;;;;;;4960734;28;19941;-79
2021/06/20 06:23:31;;;;;;;;;;;19.60;99.90;;;;;;4963336;28;19930;-79
2021/06/20 06:25:58;;;;;;;;;;;19.70;99.90;;;;;;4960844;28;19936;-79
2021/06/20 06:28:24;;;;;;;;;;;19.80;99.90;;;;;;4959451;28;20001;-79
2021/06/20 06:30:51;;;;;;;;;;;19.90;99.90;;;;;;4961027;28;19926;-79
2021/06/20 06:33:18;;;;;;;;;;;20.00;99.90;;;;;;4967680;28;20028;-80
2021/06/20 06:35:44;;;;;;;;;;;20.10;99.90;;;;;;4962451;28;19932;-79
2021/06/20 06:38:11;;;;;;;;;;;20.10;99.90;;;;;;4958227;28;19927;-79
2021/06/20 06:40:38;;;;;;;;;;;20.10;99.90;;;;;;4961157;28;19933;-80
2021/06/20 06:43:04;;;;;;;;;;;20.10;99.90;;;;;;4963129;28;19958;-79
2021/06/20 06:45:31;;;;;;;;;;;20.10;99.90;;;;;;4959583;28;20675;-79
2021/06/20 06:47:58;;;;;;;;;;;20.10;99.90;;;;;;4960319;28;19934;-78
2021/06/20 06:50:25;;;;;;;;;;;20.10;99.90;;;;;;4959895;28;20348;-78
2021/06/20 06:52:51;;;;;;;;;;;20.00;99.90;;;;;;4959462;28;20525;-79
2021/06/20 06:55:18;;;;;;;;;;;20.00;99.90;;;;;;4960347;28;19926;-79
2021/06/20 06:57:45;;;;;;;;;;;20.00;99.90;;;;;;4959848;28;19933;-79
2021/06/20 07:00:12;;;;;;;;;;;19.80;99.90;;;;;;4960461;28;19930;-79
2021/06/20 07:02:40;;;;;;;;;;;19.70;99.90;;;;;;4959645;28;19938;-78
2021/06/20 07:05:07;;;;;;;;;;;19.60;99.90;;;;;;4967071;28;19925;-78
2021/06/20 07:07:33;;;;;;;;;;;19.60;99.90;;;;;;4957567;28;20426;-79
2021/06/20 07:10:00;;;;;;;;;;;19.70;99.90;;;;;;4959847;28;19981;-79
2021/06/20 07:12:30;;;;;;;;;;;19.80;99.90;;;;;;4955872;28;19926;-79
2021/06/20 07:14:57;;;;;;;;;;;19.80;99.90;;;;;;4961536;28;19930;-79
2021/06/20 07:17:23;;;;;;;;;;;19.80;99.90;;;;;;4960728;28;19926;-79
2021/06/20 07:19:50;;;;;;;;;;;19.80;99.90;;;;;;4959541;28;19933;-79
2021/06/20 07:22:17;;;;;;;;;;;19.80;99.90;;;;;;4960624;28;19989;-79
2021/06/20 07:24:44;;;;;;;;;;;19.80;99.90;;;;;;4961433;28;19941;-79
2021/06/20 07:27:12;;;;;;;;;;;19.80;99.90;;;;;;4954255;28;19926;-79
2021/06/20 07:29:40;;;;;;;;;;;19.80;99.90;;;;;;4959983;28;20412;-79
2021/06/20 07:32:07;;;;;;;;;;;19.80;99.90;;;;;;4957494;28;20384;-79
2021/06/20 07:34:34;;;;;;;;;;;19.70;99.90;;;;;;4961628;28;19926;-79
2021/06/20 07:37:01;;;;;;;;;;;19.70;99.90;;;;;;4957963;28;20389;-78
2021/06/20 07:39:28;;;;;;;;;;;19.70;99.90;;;;;;4957393;28;20437;-79
2021/06/20 07:41:54;;;;;;;;;;;19.60;99.90;;;;;;4960452;28;19926;-79
2021/06/20 07:44:21;;;;;;;;;;;19.50;99.90;;;;;;4960710;28;19926;-79
2021/06/20 07:46:48;;;;;;;;;;;19.40;99.90;;;;;;4961391;28;19926;-79
2021/06/20 07:49:15;;;;;;;;;;;19.40;99.90;;;;;;4958921;28;20388;-81
2021/06/20 07:51:41;;;;;;;;;;;19.20;99.90;;;;;;4959492;28;20033;-79
2021/06/20 07:54:08;;;;;;;;;;;19.10;99.90;;;;;;4960823;28;20366;-79
2021/06/20 07:56:34;;;;;;;;;;;19.00;99.90;;;;;;4960904;28;19930;-79
2021/06/20 07:59:01;;;;;;;;;;;19.00;99.90;;;;;;4960681;28;19933;-79
2021/06/20 08:01:29;;;;;;;;;;;18.90;99.90;;;;;;4949353;28;19982;-79
2021/06/20 08:03:56;;;;;;;;;;;19.00;99.90;;;;;;4957342;28;19925;-80
2021/06/20 08:06:23;;;;;;;;;;;19.10;99.90;;;;;;4957380;28;20039;-79
2021/06/20 08:08:55;;;;;;;;;;;19.30;99.90;;;;;;4972956;28;19937;-79
2021/06/20 08:11:25;;;;;;;;;;;19.50;99.90;;;;;;4959423;28;20337;-79
2021/06/20 08:13:53;;;;;;;;;;;19.70;99.90;;;;;;4946824;28;20021;-79
2021/06/20 08:16:19;;;;;;;;;;;19.70;99.90;;;;;;4962418;28;20321;-79
2021/06/20 08:18:46;;;;;;;;;;;19.70;99.90;;;;;;4965348;28;19957;-78
2021/06/20 08:21:13;;;;;;;;;;;19.80;99.90;;;;;;4956142;28;19926;-79
2021/06/20 08:23:40;;;;;;;;;;;19.90;99.90;;;;;;4959792;28;19926;-79
2021/06/20 08:26:07;;;;;;;;;;;20.00;99.90;;;;;;4957984;28;19933;-79
2021/06/20 08:28:34;;;;;;;;;;;20.20;99.90;;;;;;4959744;28;19927;-79
2021/06/20 08:31:01;;;;;;;;;;;20.40;99.90;;;;;;4958089;28;19929;-79
2021/06/20 08:33:28;;;;;;;;;;;20.60;99.90;;;;;;4955504;28;20297;-79
2021/06/20 08:35:55;;;;;;;;;;;20.80;99.90;;;;;;4956823;28;19927;-80
2021/06/20 08:38:22;;;;;;;;;;;21.00;99.90;;;;;;4958732;28;19926;-78
2021/06/20 08:40:48;;;;;;;;;;;21.10;99.90;;;;;;4956247;28;19926;-79
2021/06/20 08:43:15;;;;;;;;;;;21.00;99.90;;;;;;4959258;28;19969;-79
2021/06/20 08:45:42;;;;;;;;;;;21.00;99.90;;;;;;4958397;28;19926;-80
2021/06/20 08:48:12;;;;;;;;;;;21.10;99.90;;;;;;4967662;28;19990;-79
2021/06/20 08:50:41;;;;;;;;;;;21.10;99.90;;;;;;4959082;28;19926;-79
2021/06/20 08:53:08;;;;;;;;;;;21.20;99.90;;;;;;4961235;28;20029;-80
2021/06/20 08:55:34;;;;;;;;;;;21.20;99.90;;;;;;4959285;28;20527;-80
2021/06/20 08:58:18;;;;;;;;;;;21.20;99.90;;;;;;4959098;28;19994;-80
2021/06/20 09:00:45;;;;;;;;;;;21.20;99.90;;;;;;4957092;28;19926;-80
2021/06/20 09:03:13;;;;;;;;;;;21.30;99.90;;;;;;4960130;28;20455;-80
2021/06/20 09:05:39;;;;;;;;;;;21.30;99.90;;;;;;4950125;28;19930;-80
2021/06/20 09:08:16;;;;;;;;;;;21.40;99.90;;;;;;4959971;28;19926;-80
2021/06/20 09:10:42;;;;;;;;;;;21.40;99.90;;;;;;4940909;28;19933;-80
2021/06/20 09:13:10;;;;;;;;;;;21.50;99.90;;;;;;4974195;28;19930;-80
2021/06/20 09:15:37;;;;;;;;;;;21.50;99.90;;;;;;4958082;28;20362;-79
2021/06/20 09:18:07;;;;;;;;;;;21.70;99.90;;;;;;4958870;28;19969;-79
2021/06/20 09:20:36;;;;;;;;;;;22.00;99.90;;;;;;4959214;28;19937;-80
2021/06/20 09:23:06;;;;;;;;;;;22.00;99.90;;;;;;4960507;28;19922;-82
2021/06/20 09:25:32;;;;;;;;;;;22.00;99.90;;;;;;4956815;28;19968;-80
2021/06/20 09:28:00;;;;;;;;;;;22.00;99.90;;;;;;4959565;28;19926;-80
2021/06/20 09:30:31;;;;;;;;;;;22.20;99.90;;;;;;4956844;28;19926;-80
2021/06/20 09:33:00;;;;;;;;;;;22.40;99.90;;;;;;4956482;28;19948;-79
2021/06/20 09:35:31;;;;;;;;;;;22.50;99.90;;;;;;4974122;28;19931;-80
2021/06/20 09:37:58;;;;;;;;;;;22.50;99.90;;;;;;4965242;28;19930;-79
2021/06/20 09:40:26;;;;;;;;;;;22.30;99.90;;;;;;4956588;28;19934;-80
2021/06/20 09:42:53;;;;;;;;;;;22.20;99.90;;;;;;4957039;28;20539;-79
2021/06/20 09:45:26;;;;;;;;;;;22.10;99.90;;;;;;4954563;28;19925;-80
2021/06/20 09:47:53;;;;;;;;;;;22.10;99.90;;;;;;4958488;28;19933;-79
2021/06/20 09:50:34;;;;;;;;;;;21.90;99.90;;;;;;4958368;28;19973;-79
2021/06/20 09:53:00;;;;;;;;;;;21.90;99.90;;;;;;4956950;28;20309;-79
2021/06/20 09:55:27;;;;;;;;;;;21.90;99.90;;;;;;4957548;28;19933;-79
2021/06/20 09:57:57;;;;;;;;;;;22.00;99.90;;;;;;4958113;28;20364;-79
2021/06/20 10:00:24;;;;;;;;;;;22.20;99.90;;;;;;4958208;28;19952;-79
2021/06/20 10:02:50;;;;;;;;;;;22.20;99.90;;;;;;4958236;28;20401;-79
2021/06/20 10:05:17;;;;;;;;;;;22.30;99.90;;;;;;4958435;28;19936;-79
2021/06/20 10:07:44;;;;;;;;;;;22.30;99.90;;;;;;4960046;28;19925;-79
2021/06/20 10:10:11;;;;;;;;;;;22.40;99.90;;;;;;4957251;28;19930;-79
2021/06/20 10:12:37;;;;;;;;;;;22.60;99.90;;;;;;4958868;28;20377;-80
2021/06/20 10:15:10;;;;;;;;;;;22.80;99.90;;;;;;4958562;28;20381;-80
2021/06/20 10:17:39;;;;;;;;;;;23.10;99.90;;;;;;4942201;28;20064;-80
2021/06/20 10:20:08;;;;;;;;;;;23.50;99.90;;;;;;4965304;28;19928;-80
2021/06/20 10:22:39;;;;;;;;;;;23.90;99.90;;;;;;4952683;28;19926;-80
2021/06/20 10:25:07;;;;;;;;;;;24.10;99.90;;;;;;4969004;28;20378;-80
2021/06/20 10:27:44;;;;;;;;;;;24.20;99.90;;;;;;4958580;28;19926;-79
2021/06/20 10:30:12;;;;;;;;;;;24.40;99.90;;;;;;4956352;28;19926;-80
2021/06/20 10:32:40;;;;;;;;;;;24.60;99.90;;;;;;4973307;28;20028;-80
2021/06/20 10:35:08;;;;;;;;;;;24.70;99.90;;;;;;4965499;28;19926;-80
2021/06/20 10:37:37;;;;;;;;;;;25.10;99.90;;;;;;4959812;28;19926;-80
2021/06/20 10:40:05;;;;;;;;;;;25.50;99.90;;;;;;4959858;28;19926;-79
2021/06/20 10:42:35;;;;;;;;;;;25.80;99.90;;;;;;4960600;28;19926;-80
2021/06/20 10:45:02;;;;;;;;;;;26.00;99.90;;;;;;4964292;28;19926;-80
2021/06/20 10:47:30;;;;;;;;;;;26.20;99.90;;;;;;4951968;28;19944;-79
2021/06/20 10:49:59;;;;;;;;;;;26.60;99.90;;;;;;4967430;28;19926;-80
2021/06/20 10:52:25;;;;;;;;;;;26.90;99.90;;;;;;4979685;28;19963;-79
2021/06/20 10:55:06;;;;;;;;;;;26.80;99.90;;;;;;4953333;28;19973;-80
2021/06/20 10:57:40;;;;;;;;;;;26.70;99.90;;;;;;4961872;28;19934;-80
2021/06/20 11:00:07;;;;;;;;;;;26.70;99.90;;;;;;4960935;28;20477;-80
2021/06/20 11:02:34;;;;;;;;;;;26.80;99.90;;;;;;4951116;28;19926;-82
2021/06/20 11:05:03;;;;;;;;;;;27.00;99.90;;;;;;4953204;28;19926;-80
2021/06/20 11:07:30;;;;;;;;;;;26.80;99.90;;;;;;4965771;28;19926;-80
2021/06/20 11:09:57;;;;;;;;;;;26.60;99.90;;;;;;4963453;28;19973;-80
2021/06/20 11:12:25;;;;;;;;;;;26.30;99.90;;;;;;4964342;28;20013;-80
2021/06/20 11:14:54;;;;;;;;;;;26.00;99.90;;;;;;4962952;28;19949;-79
2021/06/20 11:17:21;;;;;;;;;;;25.60;99.90;;;;;;4962143;28;19965;-80
2021/06/20 11:19:47;;;;;;;;;;;25.00;99.90;;;;;;4962581;28;19946;-80
2021/06/20 11:22:14;;;;;;;;;;;24.70;99.90;;;;;;4963797;28;20005;-81
2021/06/20 11:24:42;;;;;;;;;;;24.40;99.90;;;;;;4952813;28;20477;-81
2021/06/20 11:27:10;;;;;;;;;;;24.20;99.90;;;;;;4962442;28;19932;-80
2021/06/20 11:29:53;;;;;;;;;;;24.30;99.90;;;;;;4969374;28;19932;-81
2021/06/20 11:32:24;;;;;;;;;;;24.60;99.90;;;;;;4962327;28;20389;-81
2021/06/20 11:34:57;;;;;;;;;;;25.00;99.90;;;;;;4963009;28;19977;-81
2021/06/20 11:37:26;;;;;;;;;;;25.40;99.90;;;;;;4952149;28;20449;-80
2021/06/20 11:39:56;;;;;;;;;;;25.80;99.90;;;;;;4978058;28;19934;-81
2021/06/20 11:42:24;;;;;;;;;;;26.20;99.90;;;;;;4962971;28;19926;-81
2021/06/20 11:44:54;;;;;;;;;;;26.40;99.90;;;;;;4952985;28;20025;-81
2021/06/20 11:47:28;;;;;;;;;;;26.40;99.90;;;;;;4961778;28;19926;-81
2021/06/20 11:49:55;;;;;;;;;;;26.10;99.90;;;;;;4953432;28;19951;-80
2021/06/20 11:52:22;;;;;;;;;;;25.80;99.90;;;;;;4953882;28;19950;-80
2021/06/20 11:55:04;;;;;;;;;;;25.40;99.90;;;;;;4960294;28;20381;-80
2021/06/20 11:57:31;;;;;;;;;;;25.30;99.90;;;;;;4962877;28;20314;-82
2021/06/20 12:00:31;;;;;;;;;;;25.40;99.90;;;;;;4960199;28;19926;-80
2021/06/20 12:02:58;;;;;;;;;;;25.60;99.90;;;;;;4930215;28;19926;-80
2021/06/20 12:05:25;;;;;;;;;;;25.80;99.90;;;;;;4955304;28;19926;-80
2021/06/20 12:07:57;;;;;;;;;;;26.20;99.90;;;;;;4961489;28;19930;-80
2021/06/20 12:10:23;;;;;;;;;;;27.00;99.90;;;;;;4950469;28;19932;-80
2021/06/20 12:13:04;;;;;;;;;;;27.60;99.90;;;;;;4964251;28;19941;-80
2021/06/20 12:15:31;;;;;;;;;;;27.70;99.80;;;;;;4958287;28;19926;-80
2021/06/20 12:18:02;;;;;;;;;;;27.40;99.90;;;;;;4948803;28;19926;-80
2021/06/20 12:20:37;;;;;;;;;;;27.40;99.90;;;;;;4959351;28;20044;-80
2021/06/20 12:23:05;;;;;;;;;;;27.30;99.90;;;;;;4957103;28;20363;-80
2021/06/20 12:25:45;;;;;;;;;;;27.10;99.90;;;;;;4962224;28;19926;-80
2021/06/20 12:28:12;;;;;;;;;;;27.00;99.90;;;;;;4959632;28;20460;-80
2021/06/20 12:30:40;;;;;;;;;;;26.70;99.90;;;;;;4950069;28;19930;-80
2021/06/20 12:33:12;;;;;;;;;;;26.40;99.90;;;;;;4950161;28;19965;-80
2021/06/20 12:35:39;;;;;;;;;;;26.30;99.90;;;;;;4959174;28;20369;-80
2021/06/20 12:38:13;;;;;;;;;;;26.20;99.90;;;;;;4957047;28;20437;-80
2021/06/20 12:40:39;;;;;;;;;;;26.00;99.90;;;;;;4960827;28;19952;-80
2021/06/20 12:43:06;;;;;;;;;;;25.80;99.90;;;;;;4958710;28;19926;-80
2021/06/20 12:45:34;;;;;;;;;;;25.80;99.90;;;;;;4957411;28;19948;-80
2021/06/20 12:48:11;;;;;;;;;;;26.10;99.90;;;;;;4959357;28;19926;-80
2021/06/20 12:50:38;;;;;;;;;;;27.00;99.90;;;;;;4956998;28;19937;-80
2021/06/20 12:53:05;;;;;;;;;;;28.00;99.90;;;;;;4961431;28;19926;-80
2021/06/20 12:55:34;;;;;;;;;;;28.60;99.90;;;;;;4959461;28;19977;-80
2021/06/20 12:58:02;;;;;;;;;;;29.50;98.20;;;;;;4958420;28;20377;-80
2021/06/20 13:00:33;;;;;;;;;;;30.70;96.80;;;;;;4959547;28;19933;-80
2021/06/20 13:03:01;;;;;;;;;;;31.40;93.10;;;;;;4958909;28;19932;-80
2021/06/20 13:05:28;;;;;;;;;;;31.10;92.00;;;;;;4975885;28;19976;-81
2021/06/20 13:07:55;;;;;;;;;;;30.80;92.10;;;;;;4960284;28;19933;-80
2021/06/20 13:10:21;;;;;;;;;;;30.50;93.60;;;;;;4958359;28;19926;-80
2021/06/20 13:12:48;;;;;;;;;;;30.80;91.50;;;;;;4960793;28;19933;-81
2021/06/20 13:15:15;;;;;;;;;;;31.70;92.90;;;;;;4964254;28;19929;-81
2021/06/20 13:17:43;;;;;;;;;;;32.60;88.80;;;;;;4963184;28;19960;-81
2021/06/20 13:20:11;;;;;;;;;;;33.40;85.80;;;;;;4968797;28;19930;-80
2021/06/20 13:22:38;;;;;;;;;;;33.90;86.10;;;;;;4961141;28;19926;-81
2021/06/20 13:25:06;;;;;;;;;;;34.60;79.30;;;;;;4962572;28;19933;-81
2021/06/20 13:27:33;;;;;;;;;;;34.90;78.30;;;;;;4961005;28;20282;-82
2021/06/20 13:29:59;;;;;;;;;;;35.40;76.60;;;;;;4969654;28;19926;-81
2021/06/20 13:32:27;;;;;;;;;;;35.90;73.80;;;;;;4975840;28;20298;-81
2021/06/20 13:34:54;;;;;;;;;;;36.10;71.10;;;;;;4962147;28;19926;-81
2021/06/20 13:37:22;;;;;;;;;;;36.20;70.50;;;;;;4962070;28;20016;-81
2021/06/20 13:39:51;;;;;;;;;;;36.00;67.90;;;;;;4944882;28;20387;-81
2021/06/20 13:42:19;;;;;;;;;;;35.30;68.60;;;;;;4948559;28;19926;-81
2021/06/20 13:44:46;;;;;;;;;;;34.80;66.50;;;;;;4962250;28;19926;-81
2021/06/20 13:47:12;;;;;;;;;;;34.60;70.30;;;;;;4963633;28;19932;-81
2021/06/20 13:49:39;;;;;;;;;;;34.50;67.30;;;;;;4963401;28;19966;-81
2021/06/20 13:52:06;;;;;;;;;;;33.90;68.50;;;;;;4945587;28;20275;-81
2021/06/20 13:54:33;;;;;;;;;;;33.10;69.60;;;;;;4953607;28;19933;-80
2021/06/20 13:57:00;;;;;;;;;;;32.60;72.70;;;;;;4951608;28;19966;-80
2021/06/20 13:59:27;;;;;;;;;;;33.00;76.90;;;;;;4960191;28;19926;-81
2021/06/20 14:01:53;;;;;;;;;;;33.80;72.00;;;;;;4961564;28;19985;-81
2021/06/20 14:04:20;;;;;;;;;;;34.30;68.00;;;;;;4961179;28;20394;-80
2021/06/20 14:06:47;;;;;;;;;;;34.50;70.30;;;;;;4959779;28;19926;-79
2021/06/20 14:09:14;;;;;;;;;;;34.30;67.60;;;;;;4959439;28;19934;-80
2021/06/20 14:11:41;;;;;;;;;;;33.50;66.60;;;;;;4963788;28;21119;-80
2021/06/20 14:14:08;;;;;;;;;;;32.50;69.30;;;;;;4961731;28;19930;-80
2021/06/20 14:16:35;;;;;;;;;;;31.60;75.70;;;;;;4961351;28;20420;-80
2021/06/20 14:19:02;;;;;;;;;;;31.60;77.10;;;;;;4963211;28;19926;-81